Time;durP1;ratioP1;P1;durP2;ratioP2;P2;SDS_P1;SDS_P2;PMS_P1;PMS_P2;Temp;Humidity;BMP_temperature;BMP_pressure;BME280_temperature;BME280_humidity;BME280_pressure;Samples;Min_cycle;Max_cycle;Signal;HPM_P1;HPM_P2
2021/08/07 00:01:24;;;;;;;4.75;2.80;;;17.60;95.10;;;;;;5057345;28;20016;-66
2021/08/07 00:03:51;;;;;;;4.55;2.72;;;17.50;95.20;;;;;;5055702;28;20394;-67
2021/08/07 00:06:17;;;;;;;3.13;2.72;;;17.50;95.20;;;;;;5046465;28;20625;-65
2021/08/07 00:08:42;;;;;;;3.13;2.80;;;17.50;95.20;;;;;;5051974;28;20087;-66
2021/08/07 00:11:08;;;;;;;3.47;2.70;;;17.50;95.30;;;;;;5055113;28;20029;-67
2021/08/07 00:13:34;;;;;;;4.03;2.95;;;17.50;95.20;;;;;;5053270;28;20029;-66
2021/08/07 00:16:00;;;;;;;2.90;2.38;;;17.50;95.20;;;;;;5052924;28;20040;-65
2021/08/07 00:18:25;;;;;;;4.45;2.83;;;17.50;95.20;;;;;;5052685;28;20033;-65
2021/08/07 00:20:51;;;;;;;4.85;2.67;;;17.50;95.20;;;;;;5041694;28;20721;-65
2021/08/07 00:23:17;;;;;;;3.42;2.83;;;17.50;95.20;;;;;;5054663;28;20100;-65
2021/08/07 00:25:43;;;;;;;5.43;3.30;;;17.40;95.30;;;;;;5054190;28;20108;-66
2021/08/07 00:28:08;;;;;;;3.58;2.70;;;17.40;95.30;;;;;;5057698;28;20063;-65
2021/08/07 00:30:34;;;;;;;3.50;2.75;;;17.40;95.20;;;;;;5062747;28;20041;-65
2021/08/07 00:33:01;;;;;;;3.47;2.50;;;17.40;95.20;;;;;;5058829;28;20035;-65
2021/08/07 00:35:27;;;;;;;4.00;2.88;;;17.40;95.30;;;;;;5054215;28;20107;-66
2021/08/07 00:37:53;;;;;;;5.10;3.38;;;17.40;95.30;;;;;;5052941;28;20115;-66
2021/08/07 00:40:19;;;;;;;4.28;2.92;;;17.40;95.30;;;;;;5055197;28;20462;-66
2021/08/07 00:42:45;;;;;;;3.55;2.95;;;17.30;95.30;;;;;;5052973;28;20372;-66
2021/08/07 00:45:11;;;;;;;5.13;3.28;;;17.40;95.30;;;;;;5050550;28;20035;-66
2021/08/07 00:47:37;;;;;;;7.53;2.97;;;17.30;95.20;;;;;;5054100;28;20043;-66
2021/08/07 00:50:04;;;;;;;4.15;3.33;;;17.30;95.20;;;;;;5051267;28;20863;-65
2021/08/07 00:52:30;;;;;;;3.67;2.95;;;17.30;95.20;;;;;;5049143;28;20083;-66
2021/08/07 00:54:56;;;;;;;5.38;3.47;;;17.40;95.50;;;;;;5057347;28;20432;-65
2021/08/07 00:57:21;;;;;;;4.20;2.90;;;17.30;95.30;;;;;;5059595;28;20041;-66
2021/08/07 00:59:47;;;;;;;3.30;2.80;;;17.30;95.20;;;;;;5056161;28;20726;-66
2021/08/07 01:02:17;;;;;;;3.80;2.75;;;17.30;95.30;;;;;;5054275;28;20078;-66
2021/08/07 01:04:49;;;;;;;4.28;3.00;;;17.30;95.30;;;;;;5059344;28;20423;-66
2021/08/07 01:07:30;;;;;;;4.13;2.78;;;17.30;95.30;;;;;;5055789;28;20033;-66
2021/08/07 01:10:09;;;;;;;3.15;2.60;;;17.30;95.30;;;;;;5041033;28;20431;-66
2021/08/07 01:12:50;;;;;;;5.05;2.60;;;17.30;95.30;;;;;;5056009;28;20029;-64
2021/08/07 01:15:22;;;;;;;4.05;2.10;;;17.20;95.30;;;;;;5050937;28;20043;-67
2021/08/07 01:17:49;;;;;;;5.95;2.50;;;17.20;95.40;;;;;;5056678;28;20037;-66
2021/08/07 01:20:16;;;;;;;3.15;2.53;;;17.30;95.40;;;;;;5052259;28;20029;-66
2021/08/07 01:22:59;;;;;;;2.60;2.05;;;17.20;95.40;;;;;;5054968;28;20102;-65
2021/08/07 01:25:39;;;;;;;3.67;2.58;;;17.20;95.40;;;;;;5056641;28;20770;-65
2021/08/07 01:28:05;;;;;;;4.85;2.33;;;17.20;95.30;;;;;;5055300;28;20033;-65
2021/08/07 01:30:31;;;;;;;5.38;2.88;;;17.20;95.30;;;;;;5051896;28;20035;-66
2021/08/07 01:32:57;;;;;;;4.03;2.33;;;17.20;95.40;;;;;;5055841;28;20041;-66
2021/08/07 01:35:23;;;;;;;5.75;2.65;;;17.20;95.40;;;;;;5059896;28;20029;-66
2021/08/07 01:37:49;;;;;;;4.15;2.85;;;17.20;95.40;;;;;;5048006;28;20047;-66
2021/08/07 01:40:15;;;;;;;4.40;2.80;;;17.20;95.20;;;;;;5055365;28;20044;-65
2021/08/07 01:42:41;;;;;;;3.10;2.63;;;17.20;95.30;;;;;;5052907;28;20437;-67
2021/08/07 01:45:07;;;;;;;3.88;2.97;;;17.10;95.40;;;;;;5054048;28;20020;-65
2021/08/07 01:47:48;;;;;;;3.58;2.40;;;17.20;95.40;;;;;;5055035;28;20029;-65
2021/08/07 01:50:19;;;;;;;;;;;17.10;95.40;;;;;;5052274;28;20087;-65
2021/08/07 01:52:47;;;;;;;4.53;3.03;;;17.10;95.40;;;;;;5055836;28;19908;-65
2021/08/07 01:55:20;;;;;;;4.68;2.47;;;17.10;95.40;;;;;;5050833;28;20034;-66
2021/08/07 01:57:54;;;;;;;5.15;3.25;;;17.10;95.50;;;;;;5042846;28;20082;-67
2021/08/07 02:00:21;;;;;;;4.53;3.03;;;17.10;95.40;;;;;;5058601;28;20043;-66
2021/08/07 02:02:47;;;;;;;5.70;3.00;;;17.00;95.40;;;;;;5053427;28;20040;-67
2021/08/07 02:05:15;;;;;;;4.78;3.15;;;17.00;95.40;;;;;;5053146;28;20607;-65
2021/08/07 02:07:41;;;;;;;4.32;2.83;;;17.00;95.40;;;;;;5048867;28;20104;-65
2021/08/07 02:10:10;;;;;;;3.42;2.33;;;17.00;95.50;;;;;;5047631;28;20040;-64
2021/08/07 02:12:36;;;;;;;6.85;3.30;;;17.00;95.50;;;;;;5039192;28;20036;-66
2021/08/07 02:15:02;;;;;;;5.43;2.45;;;17.00;95.50;;;;;;5055451;28;20612;-64
2021/08/07 02:17:29;;;;;;;3.95;2.80;;;17.00;95.50;;;;;;5055709;28;20896;-66
2021/08/07 02:19:55;;;;;;;4.13;3.00;;;17.00;95.50;;;;;;5053840;28;20029;-65
2021/08/07 02:22:21;;;;;;;4.70;3.20;;;17.00;95.50;;;;;;5059055;28;20018;-66
2021/08/07 02:24:47;;;;;;;4.38;3.20;;;17.00;95.60;;;;;;5053506;28;20502;-67
2021/08/07 02:27:13;;;;;;;4.07;2.75;;;17.00;95.60;;;;;;5057371;28;20081;-66
2021/08/07 02:29:39;;;;;;;4.38;3.13;;;16.90;95.60;;;;;;5052072;28;20039;-65
2021/08/07 02:32:05;;;;;;;3.42;2.70;;;16.90;95.50;;;;;;5058279;28;20037;-64
2021/08/07 02:34:32;;;;;;;3.53;3.03;;;16.90;95.60;;;;;;5055250;28;20032;-65
2021/08/07 02:36:58;;;;;;;5.25;3.33;;;16.90;95.80;;;;;;5056774;28;20029;-65
2021/08/07 02:39:26;;;;;;;3.63;3.33;;;16.90;95.60;;;;;;5057427;28;20029;-66
2021/08/07 02:41:55;;;;;;;3.17;2.60;;;17.00;95.60;;;;;;5051588;28;20372;-66
2021/08/07 02:44:20;;;;;;;3.53;2.80;;;16.90;95.60;;;;;;5060831;28;20040;-65
2021/08/07 02:46:47;;;;;;;4.68;2.70;;;17.00;95.60;;;;;;5061419;28;20394;-65
2021/08/07 02:49:13;;;;;;;5.43;2.80;;;17.00;95.70;;;;;;5058840;28;20048;-66
2021/08/07 02:51:40;;;;;;;4.25;2.63;;;17.00;95.60;;;;;;5053416;28;20025;-64
2021/08/07 02:54:06;;;;;;;3.78;3.08;;;17.00;95.60;;;;;;5058142;28;20033;-66
2021/08/07 02:56:32;;;;;;;5.55;2.90;;;16.90;95.60;;;;;;5061716;28;20490;-66
2021/08/07 02:58:58;;;;;;;4.65;3.20;;;16.90;95.60;;;;;;5054833;28;20029;-66
2021/08/07 03:01:23;;;;;;;3.90;3.10;;;16.90;95.60;;;;;;5058474;28;20449;-66
2021/08/07 03:03:49;;;;;;;4.13;3.30;;;16.90;95.60;;;;;;5059911;28;20029;-68
2021/08/07 03:06:15;;;;;;;4.78;3.05;;;16.90;95.60;;;;;;5062097;28;20025;-65
2021/08/07 03:08:40;;;;;;;5.53;3.40;;;16.90;95.70;;;;;;5042358;28;20056;-65
2021/08/07 03:11:06;;;;;;;5.63;3.42;;;16.90;95.70;;;;;;5058872;28;20024;-64
2021/08/07 03:13:32;;;;;;;5.50;3.15;;;16.90;95.60;;;;;;5063533;28;20127;-66
2021/08/07 03:15:58;;;;;;;4.50;3.05;;;16.90;95.70;;;;;;5056625;28;20060;-67
2021/08/07 03:18:23;;;;;;;5.13;3.25;;;16.90;95.70;;;;;;5060354;28;20119;-65
2021/08/07 03:20:56;;;;;;;4.38;3.20;;;16.90;95.70;;;;;;5053694;28;20107;-65
2021/08/07 03:23:22;;;;;;;4.30;3.88;;;16.90;95.60;;;;;;5061433;28;20033;-65
2021/08/07 03:25:48;;;;;;;8.60;3.88;;;16.90;95.60;;;;;;5059379;28;20025;-67
2021/08/07 03:28:14;;;;;;;5.32;3.40;;;16.90;95.70;;;;;;5061238;28;20073;-66
2021/08/07 03:30:39;;;;;;;6.25;3.35;;;16.90;95.70;;;;;;5051901;28;20594;-66
2021/08/07 03:33:05;;;;;;;3.88;3.28;;;16.90;95.70;;;;;;5053837;28;20036;-66
2021/08/07 03:35:31;;;;;;;6.13;4.10;;;16.90;95.70;;;;;;5057876;28;20028;-65
2021/08/07 03:37:57;;;;;;;5.57;4.28;;;16.90;95.70;;;;;;5046525;28;20112;-66
2021/08/07 03:40:22;;;;;;;8.18;3.88;;;16.90;95.70;;;;;;5048923;28;20705;-67
2021/08/07 03:42:48;;;;;;;4.95;3.88;;;16.90;95.60;;;;;;5055923;28;20506;-66
2021/08/07 03:45:14;;;;;;;6.88;4.43;;;16.90;95.60;;;;;;5053519;28;20082;-66
2021/08/07 03:47:51;;;;;;;4.65;3.67;;;16.80;95.60;;;;;;5053766;28;20108;-64
2021/08/07 03:50:19;;;;;;;6.93;4.28;;;16.80;95.70;;;;;;5048818;28;20029;-64
2021/08/07 03:52:45;;;;;;;6.05;3.63;;;16.80;95.70;;;;;;5055315;28;20028;-65
2021/08/07 03:55:10;;;;;;;4.55;4.07;;;16.80;95.80;;;;;;5045018;28;20107;-65
2021/08/07 03:57:55;;;;;;;5.75;4.43;;;16.80;95.70;;;;;;5055753;28;20049;-65
2021/08/07 04:00:24;;;;;;;7.90;4.25;;;16.90;95.80;;;;;;5055263;28;20029;-66
2021/08/07 04:02:50;;;;;;;7.22;4.15;;;16.80;95.70;;;;;;5048457;28;20080;-65
2021/08/07 04:05:16;;;;;;;6.88;4.10;;;16.80;95.80;;;;;;5051001;28;20079;-66
2021/08/07 04:07:42;;;;;;;5.57;4.35;;;16.80;95.80;;;;;;5044526;28;20029;-66
2021/08/07 04:10:08;;;;;;;6.57;4.20;;;16.80;95.80;;;;;;5057740;28;20035;-66
2021/08/07 04:12:34;;;;;;;6.68;4.53;;;16.80;95.80;;;;;;5052010;28;20087;-65
2021/08/07 04:14:59;;;;;;;7.85;4.30;;;16.80;95.80;;;;;;5054503;28;20447;-66
2021/08/07 04:17:25;;;;;;;6.20;4.07;;;16.80;95.90;;;;;;5056716;28;20087;-65
2021/08/07 04:19:51;;;;;;;6.60;4.10;;;16.80;95.90;;;;;;5056062;28;20029;-65
2021/08/07 04:22:16;;;;;;;7.20;4.10;;;16.90;95.90;;;;;;5053714;28;20051;-64
2021/08/07 04:24:45;;;;;;;5.40;4.25;;;16.90;95.90;;;;;;5049422;28;20476;-66
2021/08/07 04:27:12;;;;;;;6.45;4.40;;;16.90;95.90;;;;;;5054307;28;20032;-64
2021/08/07 04:29:38;;;;;;;7.72;4.13;;;16.90;96.00;;;;;;5053323;28;20033;-67
2021/08/07 04:32:04;;;;;;;5.97;4.20;;;16.90;96.00;;;;;;5053858;28;20044;-65
2021/08/07 04:34:29;;;;;;;6.40;4.18;;;16.90;96.00;;;;;;5049523;28;20040;-65
2021/08/07 04:36:55;;;;;;;5.55;4.30;;;16.90;96.00;;;;;;5049248;28;20033;-65
2021/08/07 04:39:21;;;;;;;7.80;5.00;;;16.90;96.00;;;;;;5056658;28;20056;-66
2021/08/07 04:41:50;;;;;;;8.02;4.57;;;16.90;96.00;;;;;;5055834;28;20429;-66
2021/08/07 04:44:15;;;;;;;8.23;5.25;;;16.90;96.00;;;;;;5050529;28;20544;-65
2021/08/07 04:46:41;;;;;;;7.22;4.22;;;17.00;96.00;;;;;;5054237;28;20033;-66
2021/08/07 04:49:06;;;;;;;7.22;4.75;;;17.00;96.00;;;;;;5034985;28;20028;-67
2021/08/07 04:51:32;;;;;;;5.22;4.03;;;17.00;96.00;;;;;;5052832;28;20042;-65
2021/08/07 04:53:58;;;;;;;6.30;4.30;;;17.00;96.00;;;;;;5063095;28;20029;-67
2021/08/07 04:56:23;;;;;;;6.05;4.45;;;17.00;96.00;;;;;;5057448;28;20068;-65
2021/08/07 04:58:49;;;;;;;7.32;5.07;;;17.00;96.00;;;;;;5046296;28;20064;-65
2021/08/07 05:01:15;;;;;;;6.95;4.47;;;17.00;96.00;;;;;;5044223;28;20070;-68
2021/08/07 05:03:40;;;;;;;9.15;5.28;;;17.00;95.90;;;;;;5060832;28;20078;-65
2021/08/07 05:06:06;;;;;;;7.25;5.05;;;17.10;96.00;;;;;;5049655;28;20026;-65
2021/08/07 05:08:35;;;;;;;8.68;5.50;;;17.00;96.00;;;;;;5048746;28;20036;-66
2021/08/07 05:11:00;;;;;;;7.65;4.95;;;17.10;96.10;;;;;;5054269;28;20375;-66
2021/08/07 05:13:26;;;;;;;6.88;4.43;;;17.00;96.10;;;;;;5062621;28;20025;-66
2021/08/07 05:15:52;;;;;;;7.40;5.82;;;17.10;96.00;;;;;;5059400;28;20033;-66
2021/08/07 05:18:17;;;;;;;6.60;5.13;;;17.10;95.90;;;;;;5048617;28;20045;-66
2021/08/07 05:20:43;;;;;;;5.70;4.53;;;17.10;95.90;;;;;;5050880;28;20032;-66
2021/08/07 05:23:09;;;;;;;7.55;4.93;;;17.10;96.00;;;;;;5057496;28;20107;-65
2021/08/07 05:25:34;;;;;;;10.43;6.28;;;17.10;95.90;;;;;;5044021;28;20028;-65
2021/08/07 05:28:00;;;;;;;7.45;5.15;;;17.10;95.80;;;;;;5051956;28;20475;-65
2021/08/07 05:30:26;;;;;;;7.82;4.82;;;17.10;95.90;;;;;;5054655;28;20037;-67
2021/08/07 05:32:51;;;;;;;9.00;5.22;;;17.20;95.90;;;;;;5057172;28;20045;-64
2021/08/07 05:35:17;;;;;;;6.55;4.20;;;17.20;96.00;;;;;;5056754;28;20094;-66
2021/08/07 05:37:44;;;;;;;10.15;5.45;;;17.20;96.00;;;;;;5061122;28;20145;-66
2021/08/07 05:40:12;;;;;;;7.35;5.68;;;17.30;95.90;;;;;;5059305;28;20035;-67
2021/08/07 05:42:38;;;;;;;8.57;5.45;;;17.30;95.90;;;;;;5052192;28;20037;-65
2021/08/07 05:45:05;;;;;;;8.45;5.57;;;17.40;95.90;;;;;;5054981;28;20033;-64
2021/08/07 05:47:30;;;;;;;7.82;5.10;;;17.50;95.70;;;;;;5056432;28;20498;-68
2021/08/07 05:49:56;;;;;;;6.82;5.15;;;17.50;95.70;;;;;;5054683;28;20037;-65
2021/08/07 05:52:24;;;;;;;7.82;4.82;;;17.60;95.50;;;;;;5060209;28;20032;-66
2021/08/07 05:54:50;;;;;;;7.85;5.07;;;17.70;95.40;;;;;;5050761;28;20402;-66
2021/08/07 05:57:16;;;;;;;6.65;4.05;;;17.70;95.10;;;;;;5058145;28;20028;-66
2021/08/07 05:59:41;;;;;;;8.88;4.97;;;17.80;95.10;;;;;;5050374;28;20093;-66
2021/08/07 06:02:07;;;;;;;9.00;5.45;;;17.80;95.10;;;;;;5046930;28;20034;-67
2021/08/07 06:04:35;;;;;;;10.75;5.35;;;17.80;94.90;;;;;;5058645;28;20044;-64
2021/08/07 06:07:01;;;;;;;8.32;4.80;;;17.80;94.70;;;;;;5055784;28;20474;-65
2021/08/07 06:09:27;;;;;;;7.88;4.82;;;17.80;94.80;;;;;;5053502;28;20040;-67
2021/08/07 06:11:53;;;;;;;11.52;5.82;;;17.70;94.90;;;;;;5064331;28;20397;-67
2021/08/07 06:14:19;;;;;;;8.13;5.43;;;17.60;94.80;;;;;;5057011;28;20037;-66
2021/08/07 06:16:44;;;;;;;7.70;5.18;;;17.60;94.80;;;;;;5052500;28;20032;-65
2021/08/07 06:19:10;;;;;;;7.43;4.95;;;17.70;94.90;;;;;;5049024;28;20029;-65
2021/08/07 06:21:36;;;;;;;5.72;4.40;;;17.70;94.70;;;;;;5050648;28;20037;-65
2021/08/07 06:24:01;;;;;;;7.88;5.53;;;17.70;94.90;;;;;;5061869;28;20051;-65
2021/08/07 06:26:29;;;;;;;11.32;6.03;;;17.70;95.00;;;;;;5048757;28;20028;-65
2021/08/07 06:28:54;;;;;;;10.20;5.60;;;17.80;94.80;;;;;;5055307;28;20032;-66
2021/08/07 06:31:20;;;;;;;6.40;5.07;;;18.00;94.80;;;;;;5058783;28;20090;-66
2021/08/07 06:33:46;;;;;;;7.00;4.75;;;18.10;94.40;;;;;;5054224;28;20029;-65
2021/08/07 06:36:11;;;;;;;5.15;3.70;;;18.10;94.30;;;;;;5060311;28;20629;-65
2021/08/07 06:38:37;;;;;;;5.57;3.90;;;18.10;94.50;;;;;;5060850;28;20298;-66
2021/08/07 06:41:03;;;;;;;6.63;3.95;;;18.10;94.50;;;;;;5051485;28;20034;-66
2021/08/07 06:43:29;;;;;;;5.70;3.22;;;18.10;94.70;;;;;;5054106;28;20020;-64
2021/08/07 06:45:55;;;;;;;7.35;4.47;;;18.20;94.50;;;;;;5052736;28;20158;-65
2021/08/07 06:48:21;;;;;;;8.35;4.03;;;18.30;94.30;;;;;;5052289;28;20037;-65
2021/08/07 06:50:46;;;;;;;7.35;4.60;;;18.40;94.10;;;;;;5049182;28;20028;-68
2021/08/07 06:53:12;;;;;;;5.10;3.45;;;18.40;94.00;;;;;;5055023;28;20131;-68
2021/08/07 06:55:38;;;;;;;4.40;2.95;;;18.40;94.20;;;;;;5046447;28;20032;-68
2021/08/07 06:58:04;;;;;;;4.47;2.90;;;18.40;94.20;;;;;;5052459;28;20110;-68
2021/08/07 07:00:30;;;;;;;4.00;2.67;;;18.30;94.20;;;;;;5048251;28;20056;-68
2021/08/07 07:02:55;;;;;;;5.25;3.20;;;18.30;94.10;;;;;;5056338;28;20426;-67
2021/08/07 07:05:21;;;;;;;8.23;3.80;;;18.30;94.10;;;;;;5059251;28;20726;-68
2021/08/07 07:07:47;;;;;;;6.57;3.60;;;18.20;93.70;;;;;;5039906;28;20036;-69
2021/08/07 07:10:14;;;;;;;4.40;2.58;;;18.30;93.90;;;;;;5038916;28;20395;-68
2021/08/07 07:12:40;;;;;;;7.80;3.75;;;18.30;93.90;;;;;;5052523;28;20155;-68
2021/08/07 07:15:07;;;;;;;6.25;3.67;;;18.40;93.40;;;;;;5045588;28;20033;-68
2021/08/07 07:17:34;;;;;;;7.10;2.90;;;18.50;93.10;;;;;;5055734;28;20029;-69
2021/08/07 07:20:00;;;;;;;6.97;3.45;;;18.50;93.20;;;;;;5058629;28;20425;-69
2021/08/07 07:22:27;;;;;;;9.05;3.75;;;18.40;93.30;;;;;;5048040;28;20155;-71
2021/08/07 07:24:53;;;;;;;8.88;3.55;;;18.50;93.50;;;;;;5050330;28;20078;-69
2021/08/07 07:27:19;;;;;;;4.45;2.53;;;18.40;93.20;;;;;;5049192;28;20111;-69
2021/08/07 07:29:44;;;;;;;6.93;3.53;;;18.40;93.40;;;;;;5043487;28;20035;-69
2021/08/07 07:32:10;;;;;;;5.93;4.13;;;18.30;93.50;;;;;;5044180;28;20029;-69
2021/08/07 07:34:36;;;;;;;6.25;3.10;;;18.40;93.60;;;;;;5056853;28;20064;-70
2021/08/07 07:37:02;;;;;;;6.13;4.05;;;18.40;93.70;;;;;;5056927;28;20036;-69
2021/08/07 07:39:28;;;;;;;5.85;3.65;;;18.50;93.60;;;;;;5052819;28;20082;-69
2021/08/07 07:41:54;;;;;;;4.85;3.58;;;18.50;93.70;;;;;;5057699;28;20052;-69
2021/08/07 07:44:19;;;;;;;6.50;4.18;;;18.60;93.70;;;;;;5055397;28;20025;-69
2021/08/07 07:46:45;;;;;;;7.30;3.63;;;18.70;93.50;;;;;;5051160;28;20547;-69
2021/08/07 07:49:11;;;;;;;4.43;2.83;;;18.80;92.90;;;;;;5047955;28;20029;-68
2021/08/07 07:51:37;;;;;;;4.97;2.83;;;18.90;93.10;;;;;;5046263;28;20116;-68
2021/08/07 07:54:02;;;;;;;7.35;3.53;;;19.00;93.10;;;;;;5047638;28;20025;-67
2021/08/07 07:56:28;;;;;;;5.07;2.55;;;19.20;92.60;;;;;;5050641;28;20036;-68
2021/08/07 07:58:54;;;;;;;4.97;2.80;;;19.30;92.50;;;;;;5051327;28;20039;-69
2021/08/07 08:01:20;;;;;;;4.50;3.17;;;19.30;92.50;;;;;;5042736;28;20065;-66
2021/08/07 08:03:46;;;;;;;6.10;3.20;;;19.40;92.20;;;;;;5042017;28;20671;-66
2021/08/07 08:06:11;;;;;;;3.50;2.95;;;19.50;92.10;;;;;;5047079;28;20104;-68
2021/08/07 08:08:37;;;;;;;5.65;3.22;;;19.50;92.20;;;;;;5055825;28;20042;-67
2021/08/07 08:11:03;;;;;;;4.93;2.65;;;19.60;91.40;;;;;;5044193;28;20455;-69
2021/08/07 08:13:29;;;;;;;3.92;2.00;;;19.60;91.40;;;;;;5043308;28;20087;-69
2021/08/07 08:15:54;;;;;;;6.25;2.67;;;19.60;91.70;;;;;;5056572;28;20035;-68
2021/08/07 08:18:20;;;;;;;3.95;2.50;;;19.70;91.40;;;;;;5043510;28;20104;-65
2021/08/07 08:20:46;;;;;;;3.55;2.58;;;19.70;91.50;;;;;;5055560;28;20060;-67
2021/08/07 08:23:12;;;;;;;7.10;3.10;;;19.70;91.40;;;;;;5053403;28;20480;-66
2021/08/07 08:25:37;;;;;;;4.35;2.40;;;19.70;91.20;;;;;;5044522;28;20040;-67
2021/08/07 08:28:05;;;;;;;4.22;2.40;;;19.80;91.40;;;;;;5044182;28;20132;-66
2021/08/07 08:30:31;;;;;;;4.47;2.22;;;19.90;91.40;;;;;;5048818;28;20036;-66
2021/08/07 08:32:57;;;;;;;5.05;2.55;;;20.00;91.20;;;;;;5035306;28;20043;-66
2021/08/07 08:35:23;;;;;;;2.97;2.03;;;20.00;90.90;;;;;;5042924;28;20032;-68
2021/08/07 08:37:49;;;;;;;3.10;1.80;;;20.10;90.50;;;;;;5048605;28;20038;-69
2021/08/07 08:40:15;;;;;;;2.03;1.58;;;20.20;90.30;;;;;;5045919;28;20544;-70
2021/08/07 08:42:42;;;;;;;4.82;2.22;;;20.20;90.20;;;;;;5042975;28;20025;-68
2021/08/07 08:45:08;;;;;;;5.07;2.42;;;20.30;90.20;;;;;;5032235;28;20026;-68
2021/08/07 08:47:36;;;;;;;2.72;1.60;;;20.40;88.10;;;;;;5063192;28;20112;-66
2021/08/07 08:50:02;;;;;;;3.88;1.88;;;20.50;88.50;;;;;;5049337;28;20033;-66
2021/08/07 08:52:31;;;;;;;4.22;1.83;;;20.70;88.30;;;;;;5058191;28;20632;-68
2021/08/07 08:54:58;;;;;;;5.45;2.10;;;20.80;87.50;;;;;;5054025;28;20040;-69
2021/08/07 08:57:24;;;;;;;1.80;1.33;;;20.80;86.40;;;;;;5049662;28;20043;-70
2021/08/07 08:59:50;;;;;;;3.58;1.80;;;20.80;87.20;;;;;;5054991;28;20036;-69
2021/08/07 09:02:16;;;;;;;2.53;1.50;;;20.70;87.30;;;;;;5058165;28;20070;-68
2021/08/07 09:04:42;;;;;;;2.45;1.63;;;20.70;87.30;;;;;;5062247;28;20040;-71
2021/08/07 09:07:08;;;;;;;2.95;1.60;;;20.70;87.20;;;;;;5062986;28;20032;-66
2021/08/07 09:09:39;;;;;;;3.30;1.35;;;20.70;86.60;;;;;;5044627;28;20033;-65
2021/08/07 09:12:06;;;;;;;3.13;1.63;;;20.70;86.70;;;;;;5035547;28;20036;-66
2021/08/07 09:14:36;;;;;;;1.33;1.10;;;20.80;85.60;;;;;;5059585;28;20399;-66
2021/08/07 09:17:09;;;;;;;4.82;2.08;;;20.80;86.10;;;;;;5056084;28;20074;-67
2021/08/07 09:19:40;;;;;;;3.83;1.50;;;20.80;86.40;;;;;;5054508;28;20720;-67
2021/08/07 09:22:10;;;;;;;2.67;1.40;;;21.00;86.50;;;;;;5056410;28;20032;-66
2021/08/07 09:24:57;;;;;;;3.25;1.63;;;21.10;86.20;;;;;;5056841;28;20109;-67
2021/08/07 09:27:44;;;;;;;2.20;1.15;;;21.20;82.30;;;;;;5052468;28;20030;-67
2021/08/07 09:30:13;;;;;;;2.13;1.30;;;21.20;83.40;;;;;;5055469;28;20145;-66
2021/08/07 09:32:53;;;;;;;3.63;2.10;;;21.30;83.90;;;;;;5060152;28;20089;-68
2021/08/07 09:35:31;;;;;;;4.15;1.73;;;21.30;83.60;;;;;;5059508;28;20036;-67
2021/08/07 09:38:07;;;;;;;4.90;2.47;;;21.30;82.80;;;;;;5051639;28;20028;-66
2021/08/07 09:41:00;;;;;;;3.75;2.55;;;21.40;83.40;;;;;;5046997;28;20048;-71
2021/08/07 09:43:32;;;;;;;3.83;2.33;;;21.40;83.40;;;;;;5055028;28;20147;-67
2021/08/07 09:45:58;;;;;;;3.85;2.15;;;21.50;83.20;;;;;;5059490;28;20433;-67
2021/08/07 09:48:33;;;;;;;2.28;1.60;;;21.40;82.90;;;;;;5051493;28;20550;-67
2021/08/07 09:50:58;;;;;;;4.00;1.90;;;21.40;82.80;;;;;;5052630;28;20036;-66
2021/08/07 09:53:27;;;;;;;2.40;1.70;;;21.20;83.00;;;;;;5045759;28;20098;-66
2021/08/07 09:56:08;;;;;;;2.95;1.52;;;21.10;83.80;;;;;;5053576;28;20583;-67
2021/08/07 09:58:34;;;;;;;3.08;1.55;;;20.90;84.30;;;;;;5059706;28;20545;-66
2021/08/07 10:01:01;;;;;;;2.42;1.40;;;20.70;84.20;;;;;;5038961;28;20435;-70
2021/08/07 10:03:29;;;;;;;2.80;1.67;;;20.60;85.00;;;;;;5045799;28;20044;-66
2021/08/07 10:05:56;;;;;;;3.65;2.20;;;20.60;85.50;;;;;;5056838;28;20029;-67
2021/08/07 10:08:22;;;;;;;3.30;2.17;;;20.80;85.90;;;;;;5048048;28;20153;-67
2021/08/07 10:10:50;;;;;;;4.15;1.88;;;20.90;85.80;;;;;;5049143;28;20029;-66
2021/08/07 10:13:18;;;;;;;2.85;1.77;;;21.10;85.60;;;;;;5059221;28;20622;-67
2021/08/07 10:15:44;;;;;;;2.22;1.48;;;21.20;85.20;;;;;;5039610;28;20036;-67
2021/08/07 10:18:11;;;;;;;3.42;1.50;;;21.30;84.90;;;;;;5058571;28;20036;-67
2021/08/07 10:20:39;;;;;;;3.17;1.77;;;21.40;84.70;;;;;;5047301;28;20120;-68
2021/08/07 10:23:05;;;;;;;3.85;1.80;;;21.40;84.00;;;;;;5055711;28;20029;-67
2021/08/07 10:25:33;;;;;;;3.05;1.40;;;21.40;83.40;;;;;;5053685;28;20033;-67
2021/08/07 10:28:01;;;;;;;3.42;1.70;;;21.40;84.10;;;;;;5054002;28;20040;-67
2021/08/07 10:30:30;;;;;;;2.88;1.63;;;21.40;84.40;;;;;;5044445;28;20524;-68
2021/08/07 10:32:57;;;;;;;3.83;2.53;;;21.40;84.40;;;;;;5058258;28;20079;-67
2021/08/07 10:35:25;;;;;;;2.95;1.83;;;21.50;84.40;;;;;;5046503;28;20051;-67
2021/08/07 10:37:53;;;;;;;4.55;1.70;;;21.60;84.50;;;;;;5049981;28;20037;-67
2021/08/07 10:40:19;;;;;;;2.88;1.80;;;21.50;83.20;;;;;;5046205;28;20112;-68
2021/08/07 10:42:46;;;;;;;5.30;2.08;;;21.60;83.50;;;;;;5059060;28;20100;-67
2021/08/07 10:45:13;;;;;;;2.15;1.40;;;21.70;82.00;;;;;;5043810;28;20112;-67
2021/08/07 10:47:48;;;;;;;3.42;1.98;;;21.80;81.40;;;;;;5052989;28;20079;-66
2021/08/07 10:50:30;;;;;;;3.80;1.60;;;21.80;82.20;;;;;;5050719;28;20086;-67
2021/08/07 10:53:02;;;;;;;2.13;1.63;;;21.70;82.40;;;;;;5054998;28;20021;-67
2021/08/07 10:55:43;;;;;;;3.72;2.10;;;21.70;82.60;;;;;;5054414;28;20040;-66
2021/08/07 10:58:35;;;;;;;2.92;1.75;;;21.80;82.20;;;;;;5054204;28;20044;-66
2021/08/07 11:01:19;;;;;;;3.88;1.95;;;21.90;82.20;;;;;;5053319;28;20461;-67
2021/08/07 11:03:47;;;;;;;4.13;2.20;;;21.90;81.70;;;;;;5060826;28;20032;-67
2021/08/07 11:06:13;;;;;;;4.00;2.20;;;22.00;81.40;;;;;;5066281;28;20021;-67
2021/08/07 11:08:39;;;;;;;4.22;2.10;;;22.00;81.80;;;;;;5039410;28;20036;-66
2021/08/07 11:11:26;;;;;;;4.65;2.08;;;21.90;81.80;;;;;;5054274;28;20028;-67
2021/08/07 11:13:52;;;;;;;2.55;1.73;;;22.00;81.50;;;;;;5057489;28;20039;-66
2021/08/07 11:16:22;;;;;;;4.80;2.05;;;22.10;79.90;;;;;;5051895;28;20041;-66
2021/08/07 11:18:48;;;;;;;4.40;2.10;;;22.00;80.10;;;;;;5052254;28;20757;-66
2021/08/07 11:21:49;;;;;;;3.05;2.00;;;22.00;80.90;;;;;;5051673;28;20450;-66
2021/08/07 11:24:43;;;;;;;4.00;2.67;;;21.90;81.10;;;;;;5055725;28;20467;-67
2021/08/07 11:27:09;;;;;;;2.97;2.03;;;21.80;81.30;;;;;;5045520;28;20186;-66
2021/08/07 11:30:13;;;;;;;4.07;2.25;;;21.80;80.10;;;;;;5030156;28;20029;-68
2021/08/07 11:32:39;;;;;;;3.33;2.20;;;22.00;80.70;;;;;;5047517;28;20020;-71
2021/08/07 11:35:05;;;;;;;4.78;2.15;;;22.20;81.00;;;;;;5062121;28;20515;-71
2021/08/07 11:37:31;;;;;;;4.07;2.00;;;22.40;80.40;;;;;;5053483;28;20491;-67
2021/08/07 11:40:14;;;;;;;6.35;2.22;;;22.60;78.60;;;;;;5037183;28;20094;-68
2021/08/07 11:42:45;;;;;;;3.38;1.77;;;23.00;78.20;;;;;;5059729;28;20390;-68
2021/08/07 11:45:16;;;;;;;3.88;2.15;;;23.40;74.80;;;;;;5045129;28;20034;-72
2021/08/07 11:47:47;;;;;;;4.53;1.50;;;23.80;73.80;;;;;;5057104;28;20063;-68
2021/08/07 11:50:13;;;;;;;3.17;1.52;;;23.80;72.60;;;;;;5049754;28;20127;-69
2021/08/07 11:52:39;;;;;;;6.38;1.98;;;23.60;73.90;;;;;;5053601;28;20068;-67
2021/08/07 11:55:05;;;;;;;2.25;1.60;;;23.20;74.90;;;;;;5058078;28;20079;-69
2021/08/07 11:57:32;;;;;;;2.78;1.88;;;22.80;77.40;;;;;;5044459;28;20029;-71
2021/08/07 12:00:17;;;;;;;5.03;2.35;;;22.60;77.50;;;;;;5057065;28;20033;-69
2021/08/07 12:02:53;;;;;;;4.40;1.80;;;22.40;78.10;;;;;;5057448;28;20063;-68
2021/08/07 12:05:19;;;;;;;4.03;2.15;;;22.20;79.00;;;;;;5054524;28;20024;-68
2021/08/07 12:07:59;;;;;;;8.68;3.63;;;22.00;79.80;;;;;;5048652;28;20521;-70
2021/08/07 12:10:24;;;;;;;12.13;4.63;;;21.90;79.80;;;;;;5046116;28;20040;-70
2021/08/07 12:12:50;;;;;;;9.65;4.43;;;21.70;80.20;;;;;;5053579;28;20020;-71
2021/08/07 12:15:16;;;;;;;8.45;4.32;;;21.60;80.90;;;;;;5046218;28;20039;-67
2021/08/07 12:17:49;;;;;;;6.40;3.35;;;21.40;82.00;;;;;;5050588;28;20041;-66
2021/08/07 12:20:15;;;;;;;9.30;3.72;;;21.40;82.70;;;;;;5044023;28;20041;-68
2021/08/07 12:23:03;;;;;;;7.00;3.20;;;21.20;83.30;;;;;;5051119;28;20091;-67
2021/08/07 12:25:34;;;;;;;5.43;3.03;;;21.20;85.10;;;;;;5043127;28;20037;-68
2021/08/07 12:28:20;;;;;;;5.90;2.70;;;20.90;87.00;;;;;;5046034;28;20029;-66
2021/08/07 12:31:01;;;;;;;4.85;3.13;;;20.70;90.60;;;;;;5045735;28;20506;-68
2021/08/07 12:33:29;;;;;;;5.30;3.03;;;20.60;91.00;;;;;;5057334;28;20028;-68
2021/08/07 12:35:55;;;;;;;4.38;2.65;;;20.60;91.60;;;;;;5052256;28;20037;-66
2021/08/07 12:38:28;;;;;;;4.72;2.47;;;20.70;91.50;;;;;;5050279;28;20025;-68
2021/08/07 12:41:01;;;;;;;5.57;3.17;;;20.80;91.50;;;;;;5048952;28;20061;-67
2021/08/07 12:43:35;;;;;;;6.13;3.00;;;21.00;91.40;;;;;;5051362;28;20016;-66
2021/08/07 12:46:04;;;;;;;4.95;2.65;;;21.10;91.50;;;;;;5043604;28;20399;-67
2021/08/07 12:48:51;;;;;;;4.57;2.55;;;21.20;91.10;;;;;;5043304;28;20083;-68
2021/08/07 12:51:32;;;;;;;3.88;2.50;;;21.70;91.00;;;;;;5054546;28;20115;-68
2021/08/07 12:54:01;;;;;;;;;;;22.10;89.80;;;;;;5058264;28;20017;-70